sensor_id;sensor_type;location;lat;lon;timestamp;P1;durP1;ratioP1;P2;durP2;ratioP2
23730;SDS011;12046;44.702;10.622;2023-08-08T00:02:22;0.43;;;0.43;;
23730;SDS011;12046;44.702;10.622;2023-08-08T00:04:48;0.45;;;0.43;;
23730;SDS011;12046;44.702;10.622;2023-08-08T00:07:15;0.60;;;0.50;;
23730;SDS011;12046;44.702;10.622;2023-08-08T00:09:41;0.40;;;0.40;;
23730;SDS011;12046;44.702;10.622;2023-08-08T00:12:09;1.15;;;0.47;;
23730;SDS011;12046;44.702;10.622;2023-08-08T00:14:35;0.40;;;0.40;;
23730;SDS011;12046;44.702;10.622;2023-08-08T00:17:01;0.40;;;0.40;;
23730;SDS011;12046;44.702;10.622;2023-08-08T00:19:27;1.58;;;0.40;;
23730;SDS011;12046;44.702;10.622;2023-08-08T00:21:52;0.50;;;0.50;;
23730;SDS011;12046;44.702;10.622;2023-08-08T00:24:20;0.50;;;0.40;;
23730;SDS011;12046;44.702;10.622;2023-08-08T00:26:49;0.95;;;0.45;;
23730;SDS011;12046;44.702;10.622;2023-08-08T00:29:14;0.50;;;0.45;;
23730;SDS011;12046;44.702;10.622;2023-08-08T00:31:40;0.55;;;0.40;;
23730;SDS011;12046;44.702;10.622;2023-08-08T00:34:09;0.60;;;0.50;;
23730;SDS011;12046;44.702;10.622;2023-08-08T00:36:34;0.85;;;0.50;;
23730;SDS011;12046;44.702;10.622;2023-08-08T00:39:00;0.45;;;0.45;;
23730;SDS011;12046;44.702;10.622;2023-08-08T00:41:26;0.55;;;0.50;;
23730;SDS011;12046;44.702;10.622;2023-08-08T00:43:51;1.05;;;0.43;;
23730;SDS011;12046;44.702;10.622;2023-08-08T00:46:18;0.50;;;0.50;;
23730;SDS011;12046;44.702;10.622;2023-08-08T00:48:46;0.47;;;0.38;;
23730;SDS011;12046;44.702;10.622;2023-08-08T00:51:19;0.77;;;0.40;;
23730;SDS011;12046;44.702;10.622;2023-08-08T00:53:47;0.40;;;0.40;;
23730;SDS011;12046;44.702;10.622;2023-08-08T00:56:14;0.52;;;0.50;;
23730;SDS011;12046;44.702;10.622;2023-08-08T00:58:42;0.50;;;0.40;;
23730;SDS011;12046;44.702;10.622;2023-08-08T01:01:11;0.45;;;0.45;;
23730;SDS011;12046;44.702;10.622;2023-08-08T01:03:37;0.50;;;0.50;;
23730;SDS011;12046;44.702;10.622;2023-08-08T01:09:04;0.60;;;0.60;;
23730;SDS011;12046;44.702;10.622;2023-08-08T01:11:37;0.50;;;0.50;;
23730;SDS011;12046;44.702;10.622;2023-08-08T01:14:03;0.63;;;0.40;;
23730;SDS011;12046;44.702;10.622;2023-08-08T01:16:32;0.47;;;0.30;;
23730;SDS011;12046;44.702;10.622;2023-08-08T01:18:58;0.30;;;0.30;;
23730;SDS011;12046;44.702;10.622;2023-08-08T01:21:25;0.50;;;0.50;;
23730;SDS011;12046;44.702;10.622;2023-08-08T01:26:52;1.25;;;0.50;;
23730;SDS011;12046;44.702;10.622;2023-08-08T01:29:19;0.50;;;0.50;;
23730;SDS011;12046;44.702;10.622;2023-08-08T01:31:45;0.50;;;0.50;;
23730;SDS011;12046;44.702;10.622;2023-08-08T01:34:11;0.60;;;0.50;;
23730;SDS011;12046;44.702;10.622;2023-08-08T01:36:42;0.50;;;0.50;;
23730;SDS011;12046;44.702;10.622;2023-08-08T01:39:17;0.70;;;0.50;;
23730;SDS011;12046;44.702;10.622;2023-08-08T01:41:48;0.40;;;0.30;;
23730;SDS011;12046;44.702;10.622;2023-08-08T01:44:15;0.70;;;0.70;;
23730;SDS011;12046;44.702;10.622;2023-08-08T01:46:42;0.45;;;0.40;;
23730;SDS011;12046;44.702;10.622;2023-08-08T01:49:08;0.55;;;0.50;;
23730;SDS011;12046;44.702;10.622;2023-08-08T01:51:34;1.58;;;0.50;;
23730;SDS011;12046;44.702;10.622;2023-08-08T01:53:59;0.65;;;0.60;;
23730;SDS011;12046;44.702;10.622;2023-08-08T01:56:25;0.38;;;0.38;;
23730;SDS011;12046;44.702;10.622;2023-08-08T01:58:51;0.55;;;0.52;;
23730;SDS011;12046;44.702;10.622;2023-08-08T02:01:17;0.63;;;0.50;;
23730;SDS011;12046;44.702;10.622;2023-08-08T02:03:43;0.80;;;0.52;;
23730;SDS011;12046;44.702;10.622;2023-08-08T02:06:08;0.60;;;0.60;;
23730;SDS011;12046;44.702;10.622;2023-08-08T02:08:34;0.45;;;0.45;;
23730;SDS011;12046;44.702;10.622;2023-08-08T02:11:00;0.68;;;0.63;;
23730;SDS011;12046;44.702;10.622;2023-08-08T02:13:26;1.55;;;0.70;;
23730;SDS011;12046;44.702;10.622;2023-08-08T02:15:51;0.60;;;0.60;;
23730;SDS011;12046;44.702;10.622;2023-08-08T02:18:18;0.88;;;0.52;;
23730;SDS011;12046;44.702;10.622;2023-08-08T02:20:43;1.77;;;0.60;;
23730;SDS011;12046;44.702;10.622;2023-08-08T02:23:09;0.60;;;0.60;;
23730;SDS011;12046;44.702;10.622;2023-08-08T02:25:35;1.05;;;0.50;;
23730;SDS011;12046;44.702;10.622;2023-08-08T02:28:04;0.50;;;0.50;;
23730;SDS011;12046;44.702;10.622;2023-08-08T02:30:30;0.47;;;0.40;;
23730;SDS011;12046;44.702;10.622;2023-08-08T02:32:56;0.50;;;0.50;;
23730;SDS011;12046;44.702;10.622;2023-08-08T02:35:22;0.40;;;0.40;;
23730;SDS011;12046;44.702;10.622;2023-08-08T02:37:48;1.02;;;0.30;;
23730;SDS011;12046;44.702;10.622;2023-08-08T02:40:13;0.50;;;0.40;;
23730;SDS011;12046;44.702;10.622;2023-08-08T02:42:39;0.50;;;0.40;;
23730;SDS011;12046;44.702;10.622;2023-08-08T02:45:05;0.28;;;0.28;;
23730;SDS011;12046;44.702;10.622;2023-08-08T02:47:31;0.40;;;0.40;;
23730;SDS011;12046;44.702;10.622;2023-08-08T02:49:57;0.68;;;0.40;;
23730;SDS011;12046;44.702;10.622;2023-08-08T02:52:23;0.60;;;0.57;;
23730;SDS011;12046;44.702;10.622;2023-08-08T02:54:49;0.43;;;0.40;;
23730;SDS011;12046;44.702;10.622;2023-08-08T02:57:15;0.45;;;0.40;;
23730;SDS011;12046;44.702;10.622;2023-08-08T02:59:41;0.57;;;0.50;;
23730;SDS011;12046;44.702;10.622;2023-08-08T03:02:07;0.77;;;0.60;;
23730;SDS011;12046;44.702;10.622;2023-08-08T03:04:33;0.47;;;0.40;;
23730;SDS011;12046;44.702;10.622;2023-08-08T03:06:59;1.00;;;0.57;;
23730;SDS011;12046;44.702;10.622;2023-08-08T03:09:28;0.40;;;0.40;;
23730;SDS011;12046;44.702;10.622;2023-08-08T03:11:55;0.20;;;0.20;;
23730;SDS011;12046;44.702;10.622;2023-08-08T03:14:20;0.60;;;0.60;;
23730;SDS011;12046;44.702;10.622;2023-08-08T03:16:46;0.40;;;0.40;;
23730;SDS011;12046;44.702;10.622;2023-08-08T03:19:15;0.52;;;0.52;;
23730;SDS011;12046;44.702;10.622;2023-08-08T03:21:47;0.43;;;0.40;;
23730;SDS011;12046;44.702;10.622;2023-08-08T03:24:15;0.43;;;0.43;;
23730;SDS011;12046;44.702;10.622;2023-08-08T03:26:40;0.50;;;0.50;;
23730;SDS011;12046;44.702;10.622;2023-08-08T03:29:09;0.50;;;0.50;;
23730;SDS011;12046;44.702;10.622;2023-08-08T03:31:41;0.32;;;0.32;;
23730;SDS011;12046;44.702;10.622;2023-08-08T03:34:06;0.40;;;0.40;;
23730;SDS011;12046;44.702;10.622;2023-08-08T03:36:35;0.80;;;0.50;;
23730;SDS011;12046;44.702;10.622;2023-08-08T03:39:01;0.80;;;0.50;;
23730;SDS011;12046;44.702;10.622;2023-08-08T03:41:28;0.50;;;0.50;;
23730;SDS011;12046;44.702;10.622;2023-08-08T03:43:53;0.68;;;0.52;;
23730;SDS011;12046;44.702;10.622;2023-08-08T03:46:21;0.75;;;0.60;;
23730;SDS011;12046;44.702;10.622;2023-08-08T03:48:47;0.98;;;0.68;;
23730;SDS011;12046;44.702;10.622;2023-08-08T03:51:13;0.50;;;0.50;;
23730;SDS011;12046;44.702;10.622;2023-08-08T03:53:39;0.68;;;0.68;;
23730;SDS011;12046;44.702;10.622;2023-08-08T03:56:05;0.63;;;0.60;;
23730;SDS011;12046;44.702;10.622;2023-08-08T03:58:32;0.75;;;0.63;;
23730;SDS011;12046;44.702;10.622;2023-08-08T04:00:58;0.70;;;0.70;;
23730;SDS011;12046;44.702;10.622;2023-08-08T04:03:24;0.50;;;0.50;;
23730;SDS011;12046;44.702;10.622;2023-08-08T04:05:49;1.17;;;0.70;;
23730;SDS011;12046;44.702;10.622;2023-08-08T04:08:16;1.42;;;0.73;;
23730;SDS011;12046;44.702;10.622;2023-08-08T04:10:42;0.70;;;0.70;;
23730;SDS011;12046;44.702;10.622;2023-08-08T04:13:09;1.20;;;0.63;;
23730;SDS011;12046;44.702;10.622;2023-08-08T04:15:35;0.43;;;0.43;;
23730;SDS011;12046;44.702;10.622;2023-08-08T04:18:01;0.52;;;0.52;;
23730;SDS011;12046;44.702;10.622;2023-08-08T04:20:27;0.30;;;0.30;;
23730;SDS011;12046;44.702;10.622;2023-08-08T04:22:52;0.70;;;0.60;;
23730;SDS011;12046;44.702;10.622;2023-08-08T04:25:18;0.80;;;0.75;;
23730;SDS011;12046;44.702;10.622;2023-08-08T04:27:46;0.60;;;0.50;;
23730;SDS011;12046;44.702;10.622;2023-08-08T04:30:11;0.65;;;0.52;;
23730;SDS011;12046;44.702;10.622;2023-08-08T04:32:37;0.30;;;0.30;;
23730;SDS011;12046;44.702;10.622;2023-08-08T04:35:03;0.50;;;0.50;;
23730;SDS011;12046;44.702;10.622;2023-08-08T04:37:29;0.50;;;0.50;;
23730;SDS011;12046;44.702;10.622;2023-08-08T04:39:55;1.13;;;0.70;;
23730;SDS011;12046;44.702;10.622;2023-08-08T04:42:21;1.02;;;0.70;;
23730;SDS011;12046;44.702;10.622;2023-08-08T04:44:47;0.85;;;0.75;;
23730;SDS011;12046;44.702;10.622;2023-08-08T04:47:12;0.75;;;0.52;;
23730;SDS011;12046;44.702;10.622;2023-08-08T04:49:38;0.98;;;0.88;;
23730;SDS011;12046;44.702;10.622;2023-08-08T04:52:04;0.68;;;0.68;;
23730;SDS011;12046;44.702;10.622;2023-08-08T04:54:30;0.73;;;0.60;;
23730;SDS011;12046;44.702;10.622;2023-08-08T04:56:55;0.68;;;0.68;;
23730;SDS011;12046;44.702;10.622;2023-08-08T04:59:21;0.77;;;0.60;;
23730;SDS011;12046;44.702;10.622;2023-08-08T05:01:47;0.60;;;0.60;;
23730;SDS011;12046;44.702;10.622;2023-08-08T05:04:13;0.60;;;0.60;;
23730;SDS011;12046;44.702;10.622;2023-08-08T05:06:38;0.70;;;0.70;;
23730;SDS011;12046;44.702;10.622;2023-08-08T05:09:04;1.85;;;0.70;;
23730;SDS011;12046;44.702;10.622;2023-08-08T05:11:30;0.70;;;0.70;;
23730;SDS011;12046;44.702;10.622;2023-08-08T05:13:56;0.98;;;0.88;;
23730;SDS011;12046;44.702;10.622;2023-08-08T05:16:22;1.40;;;0.80;;
23730;SDS011;12046;44.702;10.622;2023-08-08T05:18:49;1.25;;;0.85;;
23730;SDS011;12046;44.702;10.622;2023-08-08T05:21:15;1.00;;;0.80;;
23730;SDS011;12046;44.702;10.622;2023-08-08T05:23:41;1.33;;;0.85;;
23730;SDS011;12046;44.702;10.622;2023-08-08T05:26:07;1.23;;;0.90;;
23730;SDS011;12046;44.702;10.622;2023-08-08T05:28:33;1.13;;;0.90;;
23730;SDS011;12046;44.702;10.622;2023-08-08T05:30:59;1.17;;;0.77;;
23730;SDS011;12046;44.702;10.622;2023-08-08T05:33:24;1.08;;;0.80;;
23730;SDS011;12046;44.702;10.622;2023-08-08T05:35:50;2.45;;;0.82;;
23730;SDS011;12046;44.702;10.622;2023-08-08T05:38:16;1.38;;;0.80;;
23730;SDS011;12046;44.702;10.622;2023-08-08T05:40:42;0.75;;;0.70;;
23730;SDS011;12046;44.702;10.622;2023-08-08T05:43:08;2.15;;;0.88;;
23730;SDS011;12046;44.702;10.622;2023-08-08T05:45:34;0.60;;;0.60;;
23730;SDS011;12046;44.702;10.622;2023-08-08T05:48:00;1.00;;;0.60;;
23730;SDS011;12046;44.702;10.622;2023-08-08T05:50:26;1.55;;;0.80;;
23730;SDS011;12046;44.702;10.622;2023-08-08T05:52:53;0.77;;;0.70;;
23730;SDS011;12046;44.702;10.622;2023-08-08T05:55:18;1.65;;;0.80;;
23730;SDS011;12046;44.702;10.622;2023-08-08T05:57:44;0.77;;;0.70;;
23730;SDS011;12046;44.702;10.622;2023-08-08T06:00:10;0.80;;;0.70;;
23730;SDS011;12046;44.702;10.622;2023-08-08T06:02:37;0.63;;;0.60;;
23730;SDS011;12046;44.702;10.622;2023-08-08T06:05:03;0.90;;;0.70;;
23730;SDS011;12046;44.702;10.622;2023-08-08T06:07:30;1.08;;;0.70;;
23730;SDS011;12046;44.702;10.622;2023-08-08T06:09:56;1.63;;;0.88;;
23730;SDS011;12046;44.702;10.622;2023-08-08T06:12:22;1.30;;;0.98;;
23730;SDS011;12046;44.702;10.622;2023-08-08T06:14:48;2.20;;;1.00;;
23730;SDS011;12046;44.702;10.622;2023-08-08T06:17:13;1.00;;;0.93;;
23730;SDS011;12046;44.702;10.622;2023-08-08T06:19:39;0.90;;;0.90;;
23730;SDS011;12046;44.702;10.622;2023-08-08T06:22:05;1.30;;;0.80;;
23730;SDS011;12046;44.702;10.622;2023-08-08T06:24:31;1.05;;;0.90;;
23730;SDS011;12046;44.702;10.622;2023-08-08T06:26:57;2.85;;;0.90;;
23730;SDS011;12046;44.702;10.622;2023-08-08T06:29:23;0.90;;;0.80;;
23730;SDS011;12046;44.702;10.622;2023-08-08T06:31:52;0.80;;;0.80;;
23730;SDS011;12046;44.702;10.622;2023-08-08T06:34:18;1.63;;;0.70;;
23730;SDS011;12046;44.702;10.622;2023-08-08T06:36:44;0.88;;;0.73;;
23730;SDS011;12046;44.702;10.622;2023-08-08T06:39:15;0.68;;;0.68;;
23730;SDS011;12046;44.702;10.622;2023-08-08T06:41:40;1.40;;;0.70;;
23730;SDS011;12046;44.702;10.622;2023-08-08T06:44:07;1.45;;;0.90;;
23730;SDS011;12046;44.702;10.622;2023-08-08T06:46:33;0.70;;;0.70;;
23730;SDS011;12046;44.702;10.622;2023-08-08T06:48:58;2.45;;;0.70;;
23730;SDS011;12046;44.702;10.622;2023-08-08T06:51:26;0.80;;;0.70;;
23730;SDS011;12046;44.702;10.622;2023-08-08T06:53:52;1.02;;;0.95;;
23730;SDS011;12046;44.702;10.622;2023-08-08T06:56:18;1.67;;;0.60;;
23730;SDS011;12046;44.702;10.622;2023-08-08T06:58:43;1.10;;;1.00;;
23730;SDS011;12046;44.702;10.622;2023-08-08T07:01:09;1.77;;;0.70;;
23730;SDS011;12046;44.702;10.622;2023-08-08T07:03:35;1.52;;;0.73;;
23730;SDS011;12046;44.702;10.622;2023-08-08T07:06:02;1.70;;;0.70;;
23730;SDS011;12046;44.702;10.622;2023-08-08T07:08:28;0.80;;;0.68;;
23730;SDS011;12046;44.702;10.622;2023-08-08T07:10:54;1.23;;;1.10;;
23730;SDS011;12046;44.702;10.622;2023-08-08T07:13:22;3.55;;;0.95;;
23730;SDS011;12046;44.702;10.622;2023-08-08T07:15:48;1.17;;;0.80;;
23730;SDS011;12046;44.702;10.622;2023-08-08T07:18:14;1.10;;;1.00;;
23730;SDS011;12046;44.702;10.622;2023-08-08T07:20:40;2.03;;;1.02;;
23730;SDS011;12046;44.702;10.622;2023-08-08T07:23:06;0.93;;;0.80;;
23730;SDS011;12046;44.702;10.622;2023-08-08T07:25:32;0.98;;;0.60;;
23730;SDS011;12046;44.702;10.622;2023-08-08T07:27:58;0.90;;;0.80;;
23730;SDS011;12046;44.702;10.622;2023-08-08T07:30:24;1.55;;;0.75;;
23730;SDS011;12046;44.702;10.622;2023-08-08T07:32:50;0.82;;;0.65;;
23730;SDS011;12046;44.702;10.622;2023-08-08T07:35:16;0.75;;;0.75;;
23730;SDS011;12046;44.702;10.622;2023-08-08T07:37:42;1.77;;;0.70;;
23730;SDS011;12046;44.702;10.622;2023-08-08T07:40:15;1.67;;;0.70;;
23730;SDS011;12046;44.702;10.622;2023-08-08T07:42:45;2.35;;;0.80;;
23730;SDS011;12046;44.702;10.622;2023-08-08T07:45:12;0.77;;;0.50;;
23730;SDS011;12046;44.702;10.622;2023-08-08T07:47:38;0.55;;;0.55;;
23730;SDS011;12046;44.702;10.622;2023-08-08T07:50:05;0.60;;;0.60;;
23730;SDS011;12046;44.702;10.622;2023-08-08T07:52:33;1.63;;;1.38;;
23730;SDS011;12046;44.702;10.622;2023-08-08T07:54:59;0.80;;;0.80;;
23730;SDS011;12046;44.702;10.622;2023-08-08T07:57:26;1.55;;;0.90;;
23730;SDS011;12046;44.702;10.622;2023-08-08T07:59:52;1.58;;;0.70;;
23730;SDS011;12046;44.702;10.622;2023-08-08T08:02:18;0.82;;;0.82;;
23730;SDS011;12046;44.702;10.622;2023-08-08T08:04:44;1.48;;;1.20;;
23730;SDS011;12046;44.702;10.622;2023-08-08T08:07:10;2.65;;;1.00;;
23730;SDS011;12046;44.702;10.622;2023-08-08T08:09:35;1.20;;;1.08;;
23730;SDS011;12046;44.702;10.622;2023-08-08T08:12:01;1.35;;;0.95;;
23730;SDS011;12046;44.702;10.622;2023-08-08T08:14:27;1.35;;;1.00;;
23730;SDS011;12046;44.702;10.622;2023-08-08T08:16:53;0.95;;;0.88;;
23730;SDS011;12046;44.702;10.622;2023-08-08T08:19:19;1.92;;;0.80;;
23730;SDS011;12046;44.702;10.622;2023-08-08T08:21:45;0.90;;;0.90;;
23730;SDS011;12046;44.702;10.622;2023-08-08T08:24:11;1.23;;;0.80;;
23730;SDS011;12046;44.702;10.622;2023-08-08T08:26:37;3.80;;;1.00;;
23730;SDS011;12046;44.702;10.622;2023-08-08T08:29:03;2.25;;;1.00;;
23730;SDS011;12046;44.702;10.622;2023-08-08T08:31:29;1.85;;;0.90;;
23730;SDS011;12046;44.702;10.622;2023-08-08T08:33:54;3.40;;;1.25;;
23730;SDS011;12046;44.702;10.622;2023-08-08T08:36:20;1.83;;;1.33;;
23730;SDS011;12046;44.702;10.622;2023-08-08T08:38:46;1.30;;;1.20;;
23730;SDS011;12046;44.702;10.622;2023-08-08T08:41:15;1.10;;;1.00;;
23730;SDS011;12046;44.702;10.622;2023-08-08T08:43:43;1.42;;;1.00;;
23730;SDS011;12046;44.702;10.622;2023-08-08T08:46:09;1.10;;;1.10;;
23730;SDS011;12046;44.702;10.622;2023-08-08T08:48:36;1.90;;;1.23;;
23730;SDS011;12046;44.702;10.622;2023-08-08T08:51:02;1.40;;;1.10;;
23730;SDS011;12046;44.702;10.622;2023-08-08T08:53:28;2.17;;;1.30;;
23730;SDS011;12046;44.702;10.622;2023-08-08T08:55:56;2.40;;;1.02;;
23730;SDS011;12046;44.702;10.622;2023-08-08T08:58:22;1.27;;;1.17;;
23730;SDS011;12046;44.702;10.622;2023-08-08T09:00:50;1.10;;;0.80;;
23730;SDS011;12046;44.702;10.622;2023-08-08T09:03:17;3.28;;;1.35;;
23730;SDS011;12046;44.702;10.622;2023-08-08T09:05:44;1.58;;;1.23;;
23730;SDS011;12046;44.702;10.622;2023-08-08T09:08:11;1.88;;;1.10;;
23730;SDS011;12046;44.702;10.622;2023-08-08T09:10:40;1.05;;;0.95;;
23730;SDS011;12046;44.702;10.622;2023-08-08T09:13:06;1.20;;;1.10;;
23730;SDS011;12046;44.702;10.622;2023-08-08T09:15:32;1.73;;;1.48;;
23730;SDS011;12046;44.702;10.622;2023-08-08T09:17:58;1.35;;;1.25;;
23730;SDS011;12046;44.702;10.622;2023-08-08T09:20:25;1.17;;;1.10;;
23730;SDS011;12046;44.702;10.622;2023-08-08T09:22:55;1.42;;;1.33;;
23730;SDS011;12046;44.702;10.622;2023-08-08T09:25:22;2.50;;;1.40;;
23730;SDS011;12046;44.702;10.622;2023-08-08T09:27:50;2.45;;;1.48;;
23730;SDS011;12046;44.702;10.622;2023-08-08T09:30:18;1.50;;;1.30;;
23730;SDS011;12046;44.702;10.622;2023-08-08T09:32:45;3.55;;;1.45;;
23730;SDS011;12046;44.702;10.622;2023-08-08T09:35:11;2.00;;;1.60;;
23730;SDS011;12046;44.702;10.622;2023-08-08T09:37:38;1.77;;;1.67;;
23730;SDS011;12046;44.702;10.622;2023-08-08T09:40:04;3.03;;;1.65;;
23730;SDS011;12046;44.702;10.622;2023-08-08T09:42:33;1.35;;;1.25;;
23730;SDS011;12046;44.702;10.622;2023-08-08T09:45:00;1.60;;;1.20;;
23730;SDS011;12046;44.702;10.622;2023-08-08T09:47:27;1.50;;;1.40;;
23730;SDS011;12046;44.702;10.622;2023-08-08T09:49:58;1.23;;;1.20;;
23730;SDS011;12046;44.702;10.622;2023-08-08T09:52:26;7.38;;;2.05;;
23730;SDS011;12046;44.702;10.622;2023-08-08T09:54:53;3.72;;;1.80;;
23730;SDS011;12046;44.702;10.622;2023-08-08T09:57:20;2.17;;;1.70;;
23730;SDS011;12046;44.702;10.622;2023-08-08T09:59:46;1.80;;;1.70;;
23730;SDS011;12046;44.702;10.622;2023-08-08T10:02:14;1.70;;;1.60;;
23730;SDS011;12046;44.702;10.622;2023-08-08T10:04:44;1.63;;;1.52;;
23730;SDS011;12046;44.702;10.622;2023-08-08T10:07:11;2.75;;;1.90;;
23730;SDS011;12046;44.702;10.622;2023-08-08T10:09:36;3.35;;;1.60;;
23730;SDS011;12046;44.702;10.622;2023-08-08T10:12:04;1.70;;;1.60;;
23730;SDS011;12046;44.702;10.622;2023-08-08T10:14:31;2.10;;;1.20;;
23730;SDS011;12046;44.702;10.622;2023-08-08T10:17:02;1.77;;;1.33;;
23730;SDS011;12046;44.702;10.622;2023-08-08T10:19:29;1.50;;;1.40;;
23730;SDS011;12046;44.702;10.622;2023-08-08T10:21:59;1.77;;;1.60;;
23730;SDS011;12046;44.702;10.622;2023-08-08T10:24:32;1.48;;;1.35;;
23730;SDS011;12046;44.702;10.622;2023-08-08T10:27:02;1.20;;;1.10;;
23730;SDS011;12046;44.702;10.622;2023-08-08T10:29:32;1.25;;;1.10;;
23730;SDS011;12046;44.702;10.622;2023-08-08T10:31:59;2.10;;;1.13;;
23730;SDS011;12046;44.702;10.622;2023-08-08T10:34:44;1.25;;;1.10;;
23730;SDS011;12046;44.702;10.622;2023-08-08T10:37:12;1.00;;;1.00;;
23730;SDS011;12046;44.702;10.622;2023-08-08T10:39:58;1.52;;;1.02;;
23730;SDS011;12046;44.702;10.622;2023-08-08T10:42:25;0.80;;;0.80;;
23730;SDS011;12046;44.702;10.622;2023-08-08T10:44:54;1.30;;;1.00;;
23730;SDS011;12046;44.702;10.622;2023-08-08T10:50:13;2.05;;;0.80;;
23730;SDS011;12046;44.702;10.622;2023-08-08T10:57:58;1.42;;;0.80;;
23730;SDS011;12046;44.702;10.622;2023-08-08T11:00:30;0.70;;;0.70;;
23730;SDS011;12046;44.702;10.622;2023-08-08T11:02:58;1.20;;;1.10;;
23730;SDS011;12046;44.702;10.622;2023-08-08T11:05:24;0.98;;;0.90;;
23730;SDS011;12046;44.702;10.622;2023-08-08T11:07:53;1.27;;;1.00;;
23730;SDS011;12046;44.702;10.622;2023-08-08T11:10:19;0.82;;;0.82;;
23730;SDS011;12046;44.702;10.622;2023-08-08T11:13:00;1.60;;;1.50;;
23730;SDS011;12046;44.702;10.622;2023-08-08T11:15:28;1.80;;;1.70;;
23730;SDS011;12046;44.702;10.622;2023-08-08T11:17:55;2.03;;;1.67;;
23730;SDS011;12046;44.702;10.622;2023-08-08T11:20:21;1.48;;;1.38;;
23730;SDS011;12046;44.702;10.622;2023-08-08T11:22:54;1.60;;;1.45;;
23730;SDS011;12046;44.702;10.622;2023-08-08T11:25:27;5.00;;;1.92;;
23730;SDS011;12046;44.702;10.622;2023-08-08T11:27:54;5.28;;;1.80;;
23730;SDS011;12046;44.702;10.622;2023-08-08T11:30:21;2.00;;;1.80;;
23730;SDS011;12046;44.702;10.622;2023-08-08T11:32:49;2.30;;;1.90;;
23730;SDS011;12046;44.702;10.622;2023-08-08T11:35:21;1.75;;;1.50;;
23730;SDS011;12046;44.702;10.622;2023-08-08T11:37:47;2.10;;;1.48;;
23730;SDS011;12046;44.702;10.622;2023-08-08T11:40:14;2.20;;;1.85;;
23730;SDS011;12046;44.702;10.622;2023-08-08T11:42:41;3.78;;;2.40;;
23730;SDS011;12046;44.702;10.622;2023-08-08T11:45:09;4.13;;;1.77;;
23730;SDS011;12046;44.702;10.622;2023-08-08T11:47:37;3.10;;;2.80;;
23730;SDS011;12046;44.702;10.622;2023-08-08T11:50:05;3.63;;;2.40;;
23730;SDS011;12046;44.702;10.622;2023-08-08T11:52:34;2.92;;;2.20;;
23730;SDS011;12046;44.702;10.622;2023-08-08T11:55:04;1.95;;;1.85;;
23730;SDS011;12046;44.702;10.622;2023-08-08T11:57:31;4.50;;;2.20;;
23730;SDS011;12046;44.702;10.622;2023-08-08T11:59:58;2.47;;;2.10;;
23730;SDS011;12046;44.702;10.622;2023-08-08T12:02:25;8.57;;;2.28;;
23730;SDS011;12046;44.702;10.622;2023-08-08T12:04:52;1.90;;;1.40;;
23730;SDS011;12046;44.702;10.622;2023-08-08T12:07:18;1.63;;;1.13;;
23730;SDS011;12046;44.702;10.622;2023-08-08T12:09:46;1.48;;;1.30;;
23730;SDS011;12046;44.702;10.622;2023-08-08T12:12:13;1.60;;;1.45;;
23730;SDS011;12046;44.702;10.622;2023-08-08T12:14:39;1.25;;;1.13;;
23730;SDS011;12046;44.702;10.622;2023-08-08T12:17:07;1.50;;;1.40;;
23730;SDS011;12046;44.702;10.622;2023-08-08T12:19:34;1.30;;;1.20;;
23730;SDS011;12046;44.702;10.622;2023-08-08T12:21:59;1.33;;;1.23;;
23730;SDS011;12046;44.702;10.622;2023-08-08T12:24:25;1.50;;;1.30;;
23730;SDS011;12046;44.702;10.622;2023-08-08T12:26:51;2.15;;;1.00;;
23730;SDS011;12046;44.702;10.622;2023-08-08T12:29:17;1.13;;;1.02;;
23730;SDS011;12046;44.702;10.622;2023-08-08T12:31:42;1.05;;;1.00;;
23730;SDS011;12046;44.702;10.622;2023-08-08T12:34:08;1.15;;;1.13;;
23730;SDS011;12046;44.702;10.622;2023-08-08T12:36:35;1.38;;;1.20;;
23730;SDS011;12046;44.702;10.622;2023-08-08T12:39:01;1.50;;;1.40;;
23730;SDS011;12046;44.702;10.622;2023-08-08T12:41:26;2.78;;;1.10;;
23730;SDS011;12046;44.702;10.622;2023-08-08T12:43:54;1.30;;;1.00;;
23730;SDS011;12046;44.702;10.622;2023-08-08T12:46:20;1.65;;;0.93;;
23730;SDS011;12046;44.702;10.622;2023-08-08T12:48:47;1.75;;;0.80;;
23730;SDS011;12046;44.702;10.622;2023-08-08T12:51:12;1.90;;;1.02;;
23730;SDS011;12046;44.702;10.622;2023-08-08T12:53:39;1.30;;;1.02;;
23730;SDS011;12046;44.702;10.622;2023-08-08T12:56:04;1.05;;;0.95;;
23730;SDS011;12046;44.702;10.622;2023-08-08T12:58:30;1.02;;;0.93;;
23730;SDS011;12046;44.702;10.622;2023-08-08T13:00:56;0.88;;;0.70;;
23730;SDS011;12046;44.702;10.622;2023-08-08T13:03:22;2.50;;;1.00;;
23730;SDS011;12046;44.702;10.622;2023-08-08T13:05:47;2.55;;;0.80;;
23730;SDS011;12046;44.702;10.622;2023-08-08T13:08:13;1.40;;;1.05;;
23730;SDS011;12046;44.702;10.622;2023-08-08T13:10:39;2.95;;;1.10;;
23730;SDS011;12046;44.702;10.622;2023-08-08T13:13:05;0.77;;;0.77;;
23730;SDS011;12046;44.702;10.622;2023-08-08T13:15:31;1.00;;;0.98;;
23730;SDS011;12046;44.702;10.622;2023-08-08T13:17:57;1.10;;;0.85;;
23730;SDS011;12046;44.702;10.622;2023-08-08T13:20:24;0.90;;;0.90;;
23730;SDS011;12046;44.702;10.622;2023-08-08T13:22:50;2.25;;;1.08;;
23730;SDS011;12046;44.702;10.622;2023-08-08T13:25:16;0.88;;;0.88;;
23730;SDS011;12046;44.702;10.622;2023-08-08T13:27:44;2.72;;;0.95;;
23730;SDS011;12046;44.702;10.622;2023-08-08T13:30:10;1.67;;;1.00;;
23730;SDS011;12046;44.702;10.622;2023-08-08T13:32:37;2.55;;;1.10;;
23730;SDS011;12046;44.702;10.622;2023-08-08T13:35:03;1.80;;;0.90;;
23730;SDS011;12046;44.702;10.622;2023-08-08T13:37:29;1.27;;;1.02;;
23730;SDS011;12046;44.702;10.622;2023-08-08T13:39:55;1.35;;;0.90;;
23730;SDS011;12046;44.702;10.622;2023-08-08T13:42:21;2.17;;;1.05;;
23730;SDS011;12046;44.702;10.622;2023-08-08T13:44:47;0.90;;;0.90;;
23730;SDS011;12046;44.702;10.622;2023-08-08T13:47:13;0.98;;;0.80;;
23730;SDS011;12046;44.702;10.622;2023-08-08T13:49:39;1.05;;;1.00;;
23730;SDS011;12046;44.702;10.622;2023-08-08T13:52:05;1.42;;;0.90;;
23730;SDS011;12046;44.702;10.622;2023-08-08T13:54:31;0.80;;;0.80;;
23730;SDS011;12046;44.702;10.622;2023-08-08T13:56:56;1.02;;;0.93;;
23730;SDS011;12046;44.702;10.622;2023-08-08T13:59:22;1.60;;;0.80;;
23730;SDS011;12046;44.702;10.622;2023-08-08T14:01:49;0.80;;;0.80;;
23730;SDS011;12046;44.702;10.622;2023-08-08T14:04:14;1.83;;;1.10;;
23730;SDS011;12046;44.702;10.622;2023-08-08T14:06:40;0.90;;;0.80;;
23730;SDS011;12046;44.702;10.622;2023-08-08T14:09:06;1.17;;;1.08;;
23730;SDS011;12046;44.702;10.622;2023-08-08T14:11:32;1.40;;;1.10;;
23730;SDS011;12046;44.702;10.622;2023-08-08T14:13:58;1.52;;;1.10;;
23730;SDS011;12046;44.702;10.622;2023-08-08T14:16:24;0.95;;;0.80;;
23730;SDS011;12046;44.702;10.622;2023-08-08T14:18:50;1.02;;;0.85;;
23730;SDS011;12046;44.702;10.622;2023-08-08T14:21:15;0.80;;;0.80;;
23730;SDS011;12046;44.702;10.622;2023-08-08T14:23:41;0.68;;;0.60;;
23730;SDS011;12046;44.702;10.622;2023-08-08T14:26:07;1.13;;;0.90;;
23730;SDS011;12046;44.702;10.622;2023-08-08T14:28:33;1.60;;;0.90;;
23730;SDS011;12046;44.702;10.622;2023-08-08T14:30:59;1.45;;;0.90;;
23730;SDS011;12046;44.702;10.622;2023-08-08T14:33:24;1.10;;;0.90;;
23730;SDS011;12046;44.702;10.622;2023-08-08T14:35:50;1.15;;;0.80;;
23730;SDS011;12046;44.702;10.622;2023-08-08T14:38:16;0.90;;;0.90;;
23730;SDS011;12046;44.702;10.622;2023-08-08T14:40:42;1.50;;;0.80;;
23730;SDS011;12046;44.702;10.622;2023-08-08T14:43:08;1.85;;;0.90;;
23730;SDS011;12046;44.702;10.622;2023-08-08T14:45:37;0.98;;;0.80;;